sensor_id;sensor_type;location;lat;lon;timestamp;temperature;humidity
35962;DHT22;22044;48.298;10.008;2023-03-31T00:02:34;8.70;99.90
35962;DHT22;22044;48.298;10.008;2023-03-31T00:05:20;8.70;99.90
35962;DHT22;22044;48.298;10.008;2023-03-31T00:08:09;8.70;99.90
35962;DHT22;22044;48.298;10.008;2023-03-31T00:10:58;8.70;99.90
35962;DHT22;22044;48.298;10.008;2023-03-31T00:13:44;8.80;99.90
35962;DHT22;22044;48.298;10.008;2023-03-31T00:16:30;8.70;99.90
35962;DHT22;22044;48.298;10.008;2023-03-31T00:19:17;8.80;99.90
35962;DHT22;22044;48.298;10.008;2023-03-31T00:22:04;8.70;99.90
35962;DHT22;22044;48.298;10.008;2023-03-31T00:24:49;8.70;99.90
35962;DHT22;22044;48.298;10.008;2023-03-31T00:27:35;8.60;99.90
35962;DHT22;22044;48.298;10.008;2023-03-31T00:30:21;8.50;99.90
35962;DHT22;22044;48.298;10.008;2023-03-31T00:33:06;8.40;99.90
35962;DHT22;22044;48.298;10.008;2023-03-31T00:35:54;8.20;99.90
35962;DHT22;22044;48.298;10.008;2023-03-31T00:38:40;8.20;99.90
35962;DHT22;22044;48.298;10.008;2023-03-31T00:41:30;8.10;99.90
35962;DHT22;22044;48.298;10.008;2023-03-31T00:44:18;8.00;99.90
35962;DHT22;22044;48.298;10.008;2023-03-31T00:47:12;8.10;99.90
35962;DHT22;22044;48.298;10.008;2023-03-31T00:50:00;8.20;99.90
35962;DHT22;22044;48.298;10.008;2023-03-31T00:52:48;8.20;99.90
35962;DHT22;22044;48.298;10.008;2023-03-31T00:55:39;8.20;99.90
35962;DHT22;22044;48.298;10.008;2023-03-31T00:58:26;8.00;99.90
35962;DHT22;22044;48.298;10.008;2023-03-31T01:01:15;8.00;99.90
35962;DHT22;22044;48.298;10.008;2023-03-31T01:04:02;8.10;99.90
35962;DHT22;22044;48.298;10.008;2023-03-31T01:06:54;7.90;99.90
35962;DHT22;22044;48.298;10.008;2023-03-31T01:09:45;8.00;99.90
35962;DHT22;22044;48.298;10.008;2023-03-31T01:12:33;8.10;99.90
35962;DHT22;22044;48.298;10.008;2023-03-31T01:15:21;8.20;99.90
35962;DHT22;22044;48.298;10.008;2023-03-31T01:18:08;8.30;99.90
35962;DHT22;22044;48.298;10.008;2023-03-31T01:28:04;8.10;99.90
35962;DHT22;22044;48.298;10.008;2023-03-31T01:38:08;7.70;99.90
35962;DHT22;22044;48.298;10.008;2023-03-31T01:41:34;7.70;99.90
35962;DHT22;22044;48.298;10.008;2023-03-31T01:44:29;7.70;99.90
35962;DHT22;22044;48.298;10.008;2023-03-31T01:47:21;7.80;99.90
35962;DHT22;22044;48.298;10.008;2023-03-31T01:50:17;7.90;99.90
35962;DHT22;22044;48.298;10.008;2023-03-31T01:53:06;7.90;99.90
35962;DHT22;22044;48.298;10.008;2023-03-31T01:56:00;7.90;99.90
35962;DHT22;22044;48.298;10.008;2023-03-31T01:58:53;7.90;99.90
35962;DHT22;22044;48.298;10.008;2023-03-31T02:01:43;7.80;99.90
35962;DHT22;22044;48.298;10.008;2023-03-31T02:04:36;7.60;99.90
35962;DHT22;22044;48.298;10.008;2023-03-31T02:07:26;7.40;99.90
35962;DHT22;22044;48.298;10.008;2023-03-31T02:10:14;7.60;99.90
35962;DHT22;22044;48.298;10.008;2023-03-31T02:13:02;7.70;99.90
35962;DHT22;22044;48.298;10.008;2023-03-31T02:15:52;7.80;99.90
35962;DHT22;22044;48.298;10.008;2023-03-31T02:18:41;7.70;99.90
35962;DHT22;22044;48.298;10.008;2023-03-31T02:21:29;7.70;99.90
35962;DHT22;22044;48.298;10.008;2023-03-31T02:24:18;7.80;99.90
35962;DHT22;22044;48.298;10.008;2023-03-31T02:27:08;7.80;99.90
35962;DHT22;22044;48.298;10.008;2023-03-31T02:29:56;7.80;99.90
35962;DHT22;22044;48.298;10.008;2023-03-31T02:32:44;7.90;99.90
35962;DHT22;22044;48.298;10.008;2023-03-31T02:35:32;8.00;99.90
35962;DHT22;22044;48.298;10.008;2023-03-31T02:38:20;8.10;99.90
35962;DHT22;22044;48.298;10.008;2023-03-31T02:41:06;8.10;99.90
35962;DHT22;22044;48.298;10.008;2023-03-31T02:43:52;8.20;99.90
35962;DHT22;22044;48.298;10.008;2023-03-31T02:46:39;8.30;99.90
35962;DHT22;22044;48.298;10.008;2023-03-31T02:49:26;8.40;99.90
35962;DHT22;22044;48.298;10.008;2023-03-31T02:52:45;8.40;99.90
35962;DHT22;22044;48.298;10.008;2023-03-31T02:55:46;8.40;99.90
35962;DHT22;22044;48.298;10.008;2023-03-31T02:58:58;8.40;99.90
35962;DHT22;22044;48.298;10.008;2023-03-31T03:05:16;8.40;99.90
35962;DHT22;22044;48.298;10.008;2023-03-31T03:08:23;8.30;99.90
35962;DHT22;22044;48.298;10.008;2023-03-31T03:11:13;8.10;99.90
35962;DHT22;22044;48.298;10.008;2023-03-31T03:14:06;7.90;99.90
35962;DHT22;22044;48.298;10.008;2023-03-31T03:16:59;7.90;99.90
35962;DHT22;22044;48.298;10.008;2023-03-31T03:19:51;7.90;99.90
35962;DHT22;22044;48.298;10.008;2023-03-31T03:22:39;7.90;99.90
35962;DHT22;22044;48.298;10.008;2023-03-31T03:25:25;7.90;99.90
35962;DHT22;22044;48.298;10.008;2023-03-31T03:28:10;7.90;99.90
35962;DHT22;22044;48.298;10.008;2023-03-31T03:30:56;7.80;99.90
35962;DHT22;22044;48.298;10.008;2023-03-31T03:33:42;7.70;99.90
35962;DHT22;22044;48.298;10.008;2023-03-31T03:36:27;7.80;99.90
35962;DHT22;22044;48.298;10.008;2023-03-31T03:39:14;7.80;99.90
35962;DHT22;22044;48.298;10.008;2023-03-31T03:42:00;7.80;99.90
35962;DHT22;22044;48.298;10.008;2023-03-31T03:44:45;7.80;99.90
35962;DHT22;22044;48.298;10.008;2023-03-31T03:47:31;7.80;99.90
35962;DHT22;22044;48.298;10.008;2023-03-31T03:50:17;7.80;99.90
35962;DHT22;22044;48.298;10.008;2023-03-31T03:53:02;7.80;99.90
35962;DHT22;22044;48.298;10.008;2023-03-31T03:55:49;7.80;99.90
35962;DHT22;22044;48.298;10.008;2023-03-31T03:58:35;7.70;99.90
35962;DHT22;22044;48.298;10.008;2023-03-31T04:01:20;7.70;99.90
35962;DHT22;22044;48.298;10.008;2023-03-31T04:04:06;7.60;99.90
35962;DHT22;22044;48.298;10.008;2023-03-31T04:06:52;7.70;99.90
35962;DHT22;22044;48.298;10.008;2023-03-31T04:09:38;7.70;99.90
35962;DHT22;22044;48.298;10.008;2023-03-31T04:12:25;7.70;99.90
35962;DHT22;22044;48.298;10.008;2023-03-31T04:15:10;7.60;99.90
35962;DHT22;22044;48.298;10.008;2023-03-31T04:17:56;7.70;99.90
35962;DHT22;22044;48.298;10.008;2023-03-31T04:20:41;7.60;99.90
35962;DHT22;22044;48.298;10.008;2023-03-31T04:23:28;7.60;99.90
35962;DHT22;22044;48.298;10.008;2023-03-31T04:26:15;7.60;99.90
35962;DHT22;22044;48.298;10.008;2023-03-31T04:29:02;7.60;99.90
35962;DHT22;22044;48.298;10.008;2023-03-31T04:31:48;7.70;99.90
35962;DHT22;22044;48.298;10.008;2023-03-31T04:34:35;7.70;99.90
35962;DHT22;22044;48.298;10.008;2023-03-31T04:37:21;7.60;99.90
35962;DHT22;22044;48.298;10.008;2023-03-31T04:40:11;7.50;99.90
35962;DHT22;22044;48.298;10.008;2023-03-31T04:42:56;7.50;99.90
35962;DHT22;22044;48.298;10.008;2023-03-31T04:45:44;7.40;99.90
35962;DHT22;22044;48.298;10.008;2023-03-31T04:48:29;7.40;99.90
35962;DHT22;22044;48.298;10.008;2023-03-31T04:51:15;7.30;99.90
35962;DHT22;22044;48.298;10.008;2023-03-31T04:54:00;7.30;99.90
35962;DHT22;22044;48.298;10.008;2023-03-31T04:56:46;7.30;99.90
35962;DHT22;22044;48.298;10.008;2023-03-31T04:59:32;7.40;99.90
35962;DHT22;22044;48.298;10.008;2023-03-31T05:02:19;7.40;99.90
35962;DHT22;22044;48.298;10.008;2023-03-31T05:05:07;7.40;99.90
35962;DHT22;22044;48.298;10.008;2023-03-31T05:07:53;7.30;99.90
35962;DHT22;22044;48.298;10.008;2023-03-31T05:10:39;7.40;99.90
35962;DHT22;22044;48.298;10.008;2023-03-31T05:13:25;7.40;99.90
35962;DHT22;22044;48.298;10.008;2023-03-31T05:16:12;7.40;99.90
35962;DHT22;22044;48.298;10.008;2023-03-31T05:19:02;7.40;99.90
35962;DHT22;22044;48.298;10.008;2023-03-31T05:21:47;7.50;99.90
35962;DHT22;22044;48.298;10.008;2023-03-31T05:24:33;7.50;99.90
35962;DHT22;22044;48.298;10.008;2023-03-31T05:27:19;7.50;99.90
35962;DHT22;22044;48.298;10.008;2023-03-31T05:30:06;7.50;99.90
35962;DHT22;22044;48.298;10.008;2023-03-31T05:32:52;7.40;99.90
35962;DHT22;22044;48.298;10.008;2023-03-31T05:35:39;7.50;99.90
35962;DHT22;22044;48.298;10.008;2023-03-31T05:38:25;7.50;99.90
35962;DHT22;22044;48.298;10.008;2023-03-31T05:41:14;7.60;99.90
35962;DHT22;22044;48.298;10.008;2023-03-31T05:44:00;7.70;99.90
35962;DHT22;22044;48.298;10.008;2023-03-31T05:46:45;7.80;99.90
35962;DHT22;22044;48.298;10.008;2023-03-31T05:49:31;8.00;99.90
35962;DHT22;22044;48.298;10.008;2023-03-31T05:52:18;8.00;99.90
35962;DHT22;22044;48.298;10.008;2023-03-31T05:55:05;7.90;99.90
35962;DHT22;22044;48.298;10.008;2023-03-31T05:57:51;8.00;99.90
35962;DHT22;22044;48.298;10.008;2023-03-31T06:00:37;8.00;99.90
35962;DHT22;22044;48.298;10.008;2023-03-31T06:03:23;8.00;99.90
35962;DHT22;22044;48.298;10.008;2023-03-31T06:06:09;8.10;99.90
35962;DHT22;22044;48.298;10.008;2023-03-31T06:08:59;8.10;99.90
35962;DHT22;22044;48.298;10.008;2023-03-31T06:11:45;8.20;99.90
35962;DHT22;22044;48.298;10.008;2023-03-31T06:14:31;8.10;99.90
35962;DHT22;22044;48.298;10.008;2023-03-31T06:17:16;8.20;99.90
35962;DHT22;22044;48.298;10.008;2023-03-31T06:20:02;8.20;99.90
35962;DHT22;22044;48.298;10.008;2023-03-31T06:22:50;8.20;99.90
35962;DHT22;22044;48.298;10.008;2023-03-31T06:25:38;8.10;99.90
35962;DHT22;22044;48.298;10.008;2023-03-31T06:28:23;8.00;99.90
35962;DHT22;22044;48.298;10.008;2023-03-31T06:31:10;7.90;99.90
35962;DHT22;22044;48.298;10.008;2023-03-31T06:33:56;7.90;99.90
35962;DHT22;22044;48.298;10.008;2023-03-31T06:36:42;7.80;99.90
35962;DHT22;22044;48.298;10.008;2023-03-31T06:39:27;7.80;99.90
35962;DHT22;22044;48.298;10.008;2023-03-31T06:42:14;7.70;99.90
35962;DHT22;22044;48.298;10.008;2023-03-31T06:45:00;7.70;99.90
35962;DHT22;22044;48.298;10.008;2023-03-31T06:47:46;7.60;99.90
35962;DHT22;22044;48.298;10.008;2023-03-31T06:50:32;7.60;99.90
35962;DHT22;22044;48.298;10.008;2023-03-31T06:53:17;7.60;99.90
35962;DHT22;22044;48.298;10.008;2023-03-31T06:56:03;7.60;99.90
35962;DHT22;22044;48.298;10.008;2023-03-31T06:58:50;7.60;99.90
35962;DHT22;22044;48.298;10.008;2023-03-31T07:01:36;7.50;99.90
35962;DHT22;22044;48.298;10.008;2023-03-31T07:04:22;7.60;99.90
35962;DHT22;22044;48.298;10.008;2023-03-31T07:07:08;7.60;99.90
35962;DHT22;22044;48.298;10.008;2023-03-31T07:09:53;7.60;99.90
35962;DHT22;22044;48.298;10.008;2023-03-31T07:12:39;7.80;99.90
35962;DHT22;22044;48.298;10.008;2023-03-31T07:15:26;7.80;99.90
35962;DHT22;22044;48.298;10.008;2023-03-31T07:18:12;7.90;99.90
35962;DHT22;22044;48.298;10.008;2023-03-31T07:20:58;7.80;99.90
35962;DHT22;22044;48.298;10.008;2023-03-31T07:23:44;7.90;99.90
35962;DHT22;22044;48.298;10.008;2023-03-31T07:26:29;8.10;99.90
35962;DHT22;22044;48.298;10.008;2023-03-31T07:29:15;8.20;99.90
35962;DHT22;22044;48.298;10.008;2023-03-31T07:32:03;8.50;99.90
35962;DHT22;22044;48.298;10.008;2023-03-31T07:34:48;8.50;99.90
35962;DHT22;22044;48.298;10.008;2023-03-31T07:37:34;8.40;99.90
35962;DHT22;22044;48.298;10.008;2023-03-31T07:40:22;8.50;99.90
35962;DHT22;22044;48.298;10.008;2023-03-31T07:43:08;8.50;99.90
35962;DHT22;22044;48.298;10.008;2023-03-31T07:45:53;8.60;99.90
35962;DHT22;22044;48.298;10.008;2023-03-31T07:48:41;8.70;99.90
35962;DHT22;22044;48.298;10.008;2023-03-31T07:51:27;8.60;99.90
35962;DHT22;22044;48.298;10.008;2023-03-31T07:54:12;8.70;99.90
35962;DHT22;22044;48.298;10.008;2023-03-31T07:56:58;8.60;99.90
35962;DHT22;22044;48.298;10.008;2023-03-31T07:59:46;8.60;99.90
35962;DHT22;22044;48.298;10.008;2023-03-31T08:02:31;8.60;99.90
35962;DHT22;22044;48.298;10.008;2023-03-31T08:05:19;8.70;99.90
35962;DHT22;22044;48.298;10.008;2023-03-31T08:08:05;8.70;99.90
35962;DHT22;22044;48.298;10.008;2023-03-31T08:10:51;8.70;99.90
35962;DHT22;22044;48.298;10.008;2023-03-31T08:13:36;8.80;99.90
35962;DHT22;22044;48.298;10.008;2023-03-31T08:16:22;8.90;99.90
35962;DHT22;22044;48.298;10.008;2023-03-31T08:19:07;9.00;99.90
35962;DHT22;22044;48.298;10.008;2023-03-31T08:21:55;9.20;99.90
35962;DHT22;22044;48.298;10.008;2023-03-31T08:24:40;9.20;99.90
35962;DHT22;22044;48.298;10.008;2023-03-31T08:27:26;9.20;99.90
35962;DHT22;22044;48.298;10.008;2023-03-31T08:30:12;9.30;99.90
35962;DHT22;22044;48.298;10.008;2023-03-31T08:32:58;9.30;99.90
35962;DHT22;22044;48.298;10.008;2023-03-31T08:35:43;9.50;99.90
35962;DHT22;22044;48.298;10.008;2023-03-31T08:38:31;9.70;99.90
35962;DHT22;22044;48.298;10.008;2023-03-31T08:41:33;10.00;99.90
35962;DHT22;22044;48.298;10.008;2023-03-31T08:44:25;10.30;99.90
35962;DHT22;22044;48.298;10.008;2023-03-31T08:47:17;10.30;99.90
35962;DHT22;22044;48.298;10.008;2023-03-31T08:50:06;10.50;99.90
35962;DHT22;22044;48.298;10.008;2023-03-31T08:53:01;10.70;99.90
35962;DHT22;22044;48.298;10.008;2023-03-31T08:55:52;11.00;99.90
35962;DHT22;22044;48.298;10.008;2023-03-31T08:58:39;11.10;99.90
35962;DHT22;22044;48.298;10.008;2023-03-31T09:01:32;11.20;99.90
35962;DHT22;22044;48.298;10.008;2023-03-31T09:04:32;11.30;99.90
35962;DHT22;22044;48.298;10.008;2023-03-31T09:07:27;11.60;99.90
35962;DHT22;22044;48.298;10.008;2023-03-31T09:10:29;11.60;99.90
35962;DHT22;22044;48.298;10.008;2023-03-31T09:13:25;11.60;99.90
35962;DHT22;22044;48.298;10.008;2023-03-31T09:16:14;11.80;99.90
35962;DHT22;22044;48.298;10.008;2023-03-31T09:19:01;12.10;99.90
35962;DHT22;22044;48.298;10.008;2023-03-31T09:21:49;12.30;99.90
35962;DHT22;22044;48.298;10.008;2023-03-31T09:24:41;12.60;99.90
35962;DHT22;22044;48.298;10.008;2023-03-31T09:27:30;12.70;99.90
35962;DHT22;22044;48.298;10.008;2023-03-31T09:30:26;12.80;99.90
35962;DHT22;22044;48.298;10.008;2023-03-31T09:33:16;12.90;99.90
35962;DHT22;22044;48.298;10.008;2023-03-31T09:36:11;12.90;99.90
35962;DHT22;22044;48.298;10.008;2023-03-31T09:38:58;13.20;99.90
35962;DHT22;22044;48.298;10.008;2023-03-31T09:41:45;13.20;99.90
35962;DHT22;22044;48.298;10.008;2023-03-31T09:44:36;13.40;99.90
35962;DHT22;22044;48.298;10.008;2023-03-31T09:47:30;13.60;99.90
35962;DHT22;22044;48.298;10.008;2023-03-31T09:50:22;13.70;99.90
35962;DHT22;22044;48.298;10.008;2023-03-31T09:53:16;13.90;99.90
35962;DHT22;22044;48.298;10.008;2023-03-31T09:56:04;14.00;99.90
35962;DHT22;22044;48.298;10.008;2023-03-31T09:58:51;14.40;99.90
35962;DHT22;22044;48.298;10.008;2023-03-31T10:01:37;14.40;99.90
35962;DHT22;22044;48.298;10.008;2023-03-31T10:04:25;14.60;99.90
35962;DHT22;22044;48.298;10.008;2023-03-31T10:07:12;14.50;99.90
35962;DHT22;22044;48.298;10.008;2023-03-31T10:10:10;14.40;99.90
35962;DHT22;22044;48.298;10.008;2023-03-31T10:13:07;14.20;99.90
35962;DHT22;22044;48.298;10.008;2023-03-31T10:16:00;14.30;99.90
35962;DHT22;22044;48.298;10.008;2023-03-31T10:18:46;14.40;99.90
35962;DHT22;22044;48.298;10.008;2023-03-31T10:21:36;14.20;99.90
35962;DHT22;22044;48.298;10.008;2023-03-31T10:24:22;13.90;99.90
35962;DHT22;22044;48.298;10.008;2023-03-31T10:27:18;13.50;99.90
35962;DHT22;22044;48.298;10.008;2023-03-31T10:30:09;13.40;99.90
35962;DHT22;22044;48.298;10.008;2023-03-31T10:32:55;13.50;99.90
35962;DHT22;22044;48.298;10.008;2023-03-31T10:35:41;13.70;99.90
35962;DHT22;22044;48.298;10.008;2023-03-31T10:38:30;13.90;99.90
35962;DHT22;22044;48.298;10.008;2023-03-31T10:41:17;14.10;99.90
35962;DHT22;22044;48.298;10.008;2023-03-31T10:44:04;14.10;99.90
35962;DHT22;22044;48.298;10.008;2023-03-31T10:46:51;14.00;99.90
35962;DHT22;22044;48.298;10.008;2023-03-31T10:49:38;13.80;99.90
35962;DHT22;22044;48.298;10.008;2023-03-31T10:52:25;13.80;99.90
35962;DHT22;22044;48.298;10.008;2023-03-31T10:55:25;13.70;99.90
35962;DHT22;22044;48.298;10.008;2023-03-31T10:58:22;13.80;99.90
35962;DHT22;22044;48.298;10.008;2023-03-31T11:01:26;14.10;99.90
35962;DHT22;22044;48.298;10.008;2023-03-31T11:04:29;14.30;99.90
35962;DHT22;22044;48.298;10.008;2023-03-31T11:07:30;14.70;99.90
35962;DHT22;22044;48.298;10.008;2023-03-31T11:10:33;14.60;99.90
35962;DHT22;22044;48.298;10.008;2023-03-31T11:13:25;14.70;99.90
35962;DHT22;22044;48.298;10.008;2023-03-31T11:16:21;15.00;99.90
35962;DHT22;22044;48.298;10.008;2023-03-31T11:19:27;15.00;99.90
35962;DHT22;22044;48.298;10.008;2023-03-31T11:22:23;15.00;99.90
35962;DHT22;22044;48.298;10.008;2023-03-31T11:25:21;15.10;99.90
35962;DHT22;22044;48.298;10.008;2023-03-31T11:28:21;15.10;99.90
35962;DHT22;22044;48.298;10.008;2023-03-31T11:31:25;15.10;99.90
35962;DHT22;22044;48.298;10.008;2023-03-31T11:34:38;15.30;99.90
35962;DHT22;22044;48.298;10.008;2023-03-31T11:37:41;15.20;99.90
35962;DHT22;22044;48.298;10.008;2023-03-31T11:40:42;15.20;99.90
35962;DHT22;22044;48.298;10.008;2023-03-31T11:43:34;15.10;99.90
35962;DHT22;22044;48.298;10.008;2023-03-31T11:46:22;15.10;99.90
35962;DHT22;22044;48.298;10.008;2023-03-31T11:49:16;15.10;99.90
35962;DHT22;22044;48.298;10.008;2023-03-31T11:52:05;15.10;99.90
35962;DHT22;22044;48.298;10.008;2023-03-31T11:54:56;15.10;99.90
35962;DHT22;22044;48.298;10.008;2023-03-31T11:57:47;15.20;99.90
35962;DHT22;22044;48.298;10.008;2023-03-31T12:00:37;15.30;99.90
35962;DHT22;22044;48.298;10.008;2023-03-31T12:03:31;15.20;99.90
35962;DHT22;22044;48.298;10.008;2023-03-31T12:06:24;15.10;99.90
35962;DHT22;22044;48.298;10.008;2023-03-31T12:09:16;14.90;99.90
35962;DHT22;22044;48.298;10.008;2023-03-31T12:12:08;14.90;99.90
35962;DHT22;22044;48.298;10.008;2023-03-31T12:15:02;14.70;99.90
35962;DHT22;22044;48.298;10.008;2023-03-31T12:17:56;14.30;99.90
35962;DHT22;22044;48.298;10.008;2023-03-31T12:20:46;13.00;99.90
35962;DHT22;22044;48.298;10.008;2023-03-31T12:23:39;12.10;99.90
35962;DHT22;22044;48.298;10.008;2023-03-31T12:26:33;11.60;99.90
35962;DHT22;22044;48.298;10.008;2023-03-31T12:29:27;11.60;99.90
35962;DHT22;22044;48.298;10.008;2023-03-31T12:32:17;11.60;99.90
35962;DHT22;22044;48.298;10.008;2023-03-31T12:35:07;11.70;99.90
35962;DHT22;22044;48.298;10.008;2023-03-31T12:38:09;11.90;99.90
35962;DHT22;22044;48.298;10.008;2023-03-31T12:41:03;12.10;99.90
35962;DHT22;22044;48.298;10.008;2023-03-31T12:44:14;12.00;99.90
35962;DHT22;22044;48.298;10.008;2023-03-31T12:47:17;12.00;99.90
35962;DHT22;22044;48.298;10.008;2023-03-31T12:50:27;12.00;99.90
35962;DHT22;22044;48.298;10.008;2023-03-31T12:53:23;12.00;99.90
35962;DHT22;22044;48.298;10.008;2023-03-31T12:56:10;12.20;99.90
35962;DHT22;22044;48.298;10.008;2023-03-31T12:59:21;12.10;99.90
35962;DHT22;22044;48.298;10.008;2023-03-31T13:02:22;12.30;99.90
35962;DHT22;22044;48.298;10.008;2023-03-31T13:08:58;12.30;99.90
35962;DHT22;22044;48.298;10.008;2023-03-31T13:11:45;12.50;99.90
35962;DHT22;22044;48.298;10.008;2023-03-31T13:14:36;12.50;99.90
35962;DHT22;22044;48.298;10.008;2023-03-31T13:17:29;12.60;99.90
35962;DHT22;22044;48.298;10.008;2023-03-31T13:20:24;12.60;99.90
35962;DHT22;22044;48.298;10.008;2023-03-31T13:23:19;12.70;99.90
35962;DHT22;22044;48.298;10.008;2023-03-31T13:26:21;12.70;99.90
35962;DHT22;22044;48.298;10.008;2023-03-31T13:29:23;13.00;99.90
35962;DHT22;22044;48.298;10.008;2023-03-31T13:32:19;13.00;99.90
35962;DHT22;22044;48.298;10.008;2023-03-31T13:35:24;13.10;99.90
35962;DHT22;22044;48.298;10.008;2023-03-31T13:38:17;13.30;99.90
35962;DHT22;22044;48.298;10.008;2023-03-31T13:41:15;13.40;99.90
35962;DHT22;22044;48.298;10.008;2023-03-31T13:44:33;13.20;99.90
35962;DHT22;22044;48.298;10.008;2023-03-31T13:47:38;13.20;99.90
35962;DHT22;22044;48.298;10.008;2023-03-31T13:50:48;13.10;99.90
35962;DHT22;22044;48.298;10.008;2023-03-31T13:54:02;13.00;99.90
35962;DHT22;22044;48.298;10.008;2023-03-31T13:57:18;13.00;99.90
35962;DHT22;22044;48.298;10.008;2023-03-31T14:00:20;12.90;99.90
35962;DHT22;22044;48.298;10.008;2023-03-31T14:03:28;13.00;99.90
35962;DHT22;22044;48.298;10.008;2023-03-31T14:06:25;13.10;99.90
35962;DHT22;22044;48.298;10.008;2023-03-31T14:09:19;13.20;99.90
35962;DHT22;22044;48.298;10.008;2023-03-31T14:12:19;13.00;99.90
35962;DHT22;22044;48.298;10.008;2023-03-31T14:15:16;13.20;99.90
35962;DHT22;22044;48.298;10.008;2023-03-31T14:18:02;13.40;99.90
35962;DHT22;22044;48.298;10.008;2023-03-31T14:21:14;13.50;99.90
35962;DHT22;22044;48.298;10.008;2023-03-31T14:24:11;13.30;99.90
35962;DHT22;22044;48.298;10.008;2023-03-31T14:27:05;13.10;99.90
35962;DHT22;22044;48.298;10.008;2023-03-31T14:30:00;13.00;99.90
35962;DHT22;22044;48.298;10.008;2023-03-31T14:32:53;12.90;99.90
35962;DHT22;22044;48.298;10.008;2023-03-31T14:35:52;12.90;99.90
35962;DHT22;22044;48.298;10.008;2023-03-31T14:38:38;13.00;99.90
35962;DHT22;22044;48.298;10.008;2023-03-31T14:41:25;12.90;99.90
35962;DHT22;22044;48.298;10.008;2023-03-31T14:44:14;12.80;99.90
35962;DHT22;22044;48.298;10.008;2023-03-31T14:47:00;12.70;99.90
35962;DHT22;22044;48.298;10.008;2023-03-31T14:49:46;12.40;99.90
35962;DHT22;22044;48.298;10.008;2023-03-31T14:52:32;12.10;99.90
35962;DHT22;22044;48.298;10.008;2023-03-31T14:55:22;11.70;99.90
35962;DHT22;22044;48.298;10.008;2023-03-31T14:58:12;11.60;99.90
35962;DHT22;22044;48.298;10.008;2023-03-31T15:01:03;11.40;99.90
35962;DHT22;22044;48.298;10.008;2023-03-31T15:03:51;11.40;99.90
35962;DHT22;22044;48.298;10.008;2023-03-31T15:06:36;11.50;99.90
35962;DHT22;22044;48.298;10.008;2023-03-31T15:09:27;11.50;99.90
35962;DHT22;22044;48.298;10.008;2023-03-31T15:12:14;11.50;99.90
35962;DHT22;22044;48.298;10.008;2023-03-31T15:15:04;11.50;99.90
35962;DHT22;22044;48.298;10.008;2023-03-31T15:17:50;11.40;99.90
35962;DHT22;22044;48.298;10.008;2023-03-31T15:20:38;11.40;99.90
35962;DHT22;22044;48.298;10.008;2023-03-31T15:23:25;11.40;99.90
35962;DHT22;22044;48.298;10.008;2023-03-31T15:26:12;11.20;99.90
35962;DHT22;22044;48.298;10.008;2023-03-31T15:29:04;11.10;99.90
35962;DHT22;22044;48.298;10.008;2023-03-31T15:31:55;11.00;99.90
35962;DHT22;22044;48.298;10.008;2023-03-31T15:34:42;10.70;99.90
35962;DHT22;22044;48.298;10.008;2023-03-31T15:37:32;10.30;99.90
35962;DHT22;22044;48.298;10.008;2023-03-31T15:40:22;10.10;99.90
35962;DHT22;22044;48.298;10.008;2023-03-31T15:43:13;9.90;99.90
35962;DHT22;22044;48.298;10.008;2023-03-31T15:46:00;9.90;99.90
35962;DHT22;22044;48.298;10.008;2023-03-31T15:48:52;9.90;99.90
35962;DHT22;22044;48.298;10.008;2023-03-31T15:51:40;9.80;99.90
35962;DHT22;22044;48.298;10.008;2023-03-31T15:54:35;9.80;99.90
35962;DHT22;22044;48.298;10.008;2023-03-31T15:57:31;9.60;99.90
35962;DHT22;22044;48.298;10.008;2023-03-31T16:00:41;9.60;99.90
35962;DHT22;22044;48.298;10.008;2023-03-31T16:03:33;9.60;99.90
35962;DHT22;22044;48.298;10.008;2023-03-31T16:06:31;9.70;99.90
35962;DHT22;22044;48.298;10.008;2023-03-31T16:09:20;9.70;99.90
35962;DHT22;22044;48.298;10.008;2023-03-31T16:12:15;9.80;99.90
35962;DHT22;22044;48.298;10.008;2023-03-31T16:15:05;9.90;99.90
35962;DHT22;22044;48.298;10.008;2023-03-31T16:17:54;10.10;99.90
35962;DHT22;22044;48.298;10.008;2023-03-31T16:20:43;10.10;99.90
35962;DHT22;22044;48.298;10.008;2023-03-31T16:23:34;10.10;99.90
35962;DHT22;22044;48.298;10.008;2023-03-31T16:26:22;10.00;99.90
35962;DHT22;22044;48.298;10.008;2023-03-31T16:29:09;9.90;99.90
35962;DHT22;22044;48.298;10.008;2023-03-31T16:32:09;9.80;99.90
35962;DHT22;22044;48.298;10.008;2023-03-31T16:34:56;9.70;99.90
35962;DHT22;22044;48.298;10.008;2023-03-31T16:37:41;9.60;99.90
35962;DHT22;22044;48.298;10.008;2023-03-31T16:40:35;9.50;99.90
35962;DHT22;22044;48.298;10.008;2023-03-31T16:43:22;9.50;99.90
35962;DHT22;22044;48.298;10.008;2023-03-31T16:46:08;9.40;99.90
35962;DHT22;22044;48.298;10.008;2023-03-31T16:48:54;9.30;99.90
35962;DHT22;22044;48.298;10.008;2023-03-31T16:51:39;9.30;99.90
35962;DHT22;22044;48.298;10.008;2023-03-31T16:54:25;9.00;99.90
35962;DHT22;22044;48.298;10.008;2023-03-31T16:57:11;8.80;99.90
35962;DHT22;22044;48.298;10.008;2023-03-31T16:59:58;8.80;99.90
35962;DHT22;22044;48.298;10.008;2023-03-31T17:02:43;8.90;99.90
35962;DHT22;22044;48.298;10.008;2023-03-31T17:05:29;9.00;99.90
35962;DHT22;22044;48.298;10.008;2023-03-31T17:08:17;9.00;99.90
35962;DHT22;22044;48.298;10.008;2023-03-31T17:11:05;9.00;99.90
35962;DHT22;22044;48.298;10.008;2023-03-31T17:13:52;9.00;99.90
35962;DHT22;22044;48.298;10.008;2023-03-31T17:16:39;9.10;99.90
35962;DHT22;22044;48.298;10.008;2023-03-31T17:19:26;9.00;99.90
35962;DHT22;22044;48.298;10.008;2023-03-31T17:22:12;9.10;99.90
35962;DHT22;22044;48.298;10.008;2023-03-31T17:24:57;9.00;99.90
35962;DHT22;22044;48.298;10.008;2023-03-31T17:27:43;8.90;99.90
35962;DHT22;22044;48.298;10.008;2023-03-31T17:30:30;8.70;99.90
35962;DHT22;22044;48.298;10.008;2023-03-31T17:33:17;8.60;99.90
35962;DHT22;22044;48.298;10.008;2023-03-31T17:36:03;8.60;99.90
35962;DHT22;22044;48.298;10.008;2023-03-31T17:38:48;8.40;99.90
35962;DHT22;22044;48.298;10.008;2023-03-31T17:41:34;8.50;99.90
35962;DHT22;22044;48.298;10.008;2023-03-31T17:44:21;8.60;99.90
35962;DHT22;22044;48.298;10.008;2023-03-31T17:47:07;8.70;99.90
35962;DHT22;22044;48.298;10.008;2023-03-31T17:49:53;8.80;99.90
35962;DHT22;22044;48.298;10.008;2023-03-31T17:52:38;8.80;99.90
35962;DHT22;22044;48.298;10.008;2023-03-31T17:55:24;8.80;99.90
35962;DHT22;22044;48.298;10.008;2023-03-31T17:58:10;8.90;99.90
35962;DHT22;22044;48.298;10.008;2023-03-31T18:00:56;8.90;99.90
35962;DHT22;22044;48.298;10.008;2023-03-31T18:03:43;8.90;99.90
35962;DHT22;22044;48.298;10.008;2023-03-31T18:06:29;8.80;99.90
35962;DHT22;22044;48.298;10.008;2023-03-31T18:09:15;8.70;99.90
35962;DHT22;22044;48.298;10.008;2023-03-31T18:12:00;8.60;99.90